createdAt,value
2023-05-19T00:01:22.647Z,75.63
2023-05-19T00:03:57.274Z,76.05
2023-05-19T00:06:33.371Z,75.75
2023-05-19T00:09:11.570Z,75.51
2023-05-19T00:11:40.198Z,75.46
2023-05-19T00:14:09.990Z,75.59
2023-05-19T00:16:38.755Z,75.69
2023-05-19T00:19:09.749Z,75.63
2023-05-19T00:21:40.639Z,75.14
2023-05-19T00:24:08.007Z,75.27
2023-05-19T00:26:35.471Z,74.97
2023-05-19T00:29:05.657Z,75.19
2023-05-19T00:31:33.668Z,75.08
2023-05-19T00:34:01.529Z,75.40
2023-05-19T00:36:29.249Z,75.34
2023-05-19T00:38:56.769Z,75.65
2023-05-19T00:41:24.574Z,75.86
2023-05-19T00:43:52.179Z,76.09
2023-05-19T00:46:19.939Z,75.94
2023-05-19T00:48:48.380Z,75.77
2023-05-19T00:51:17.069Z,75.60
2023-05-19T00:53:48.738Z,75.45
2023-05-19T00:56:17.156Z,75.56
2023-05-19T00:58:45.036Z,75.82
2023-05-19T01:01:14.327Z,75.95
2023-05-19T01:03:42.594Z,76.06
2023-05-19T01:06:11.675Z,76.24
2023-05-19T01:08:39.236Z,76.22
2023-05-19T01:11:07.611Z,76.00
2023-05-19T01:13:36.621Z,75.71
2023-05-19T01:16:11.965Z,75.66
2023-05-19T01:19:10.461Z,75.69
2023-05-19T01:22:02.080Z,75.65
2023-05-19T01:24:44.924Z,76.01
2023-05-19T01:27:19.676Z,76.61
2023-05-19T01:30:18.604Z,77.09
2023-05-19T01:32:48.213Z,77.64
2023-05-19T01:35:16.693Z,77.76
2023-05-19T01:37:45.900Z,78.42
2023-05-19T01:40:13.619Z,78.60
2023-05-19T01:42:41.822Z,78.47
2023-05-19T01:45:10.541Z,78.58
2023-05-19T01:47:43.458Z,79.08
2023-05-19T01:50:11.329Z,78.79
2023-05-19T01:52:38.901Z,79.22
2023-05-19T01:55:07.258Z,79.28
2023-05-19T01:57:54.825Z,79.01
2023-05-19T02:01:01.877Z,78.98
2023-05-19T02:03:57.703Z,78.65
2023-05-19T02:06:28.003Z,78.14
2023-05-19T02:09:06.477Z,78.00
2023-05-19T02:11:46.334Z,78.12
2023-05-19T02:14:23.553Z,77.94
2023-05-19T02:16:52.236Z,78.01
2023-05-19T02:19:39.139Z,78.20
2023-05-19T02:22:06.672Z,78.09
2023-05-19T02:24:34.189Z,78.21
2023-05-19T02:27:02.315Z,78.82
2023-05-19T02:29:29.658Z,79.00
2023-05-19T02:31:58.633Z,78.85
2023-05-19T02:34:26.428Z,79.00
2023-05-19T02:36:53.787Z,79.35
2023-05-19T02:39:21.590Z,79.44
2023-05-19T02:41:48.910Z,79.58
2023-05-19T02:44:16.299Z,79.06
2023-05-19T02:46:44.179Z,79.10
2023-05-19T02:49:11.619Z,78.93
2023-05-19T02:51:39.573Z,78.85
2023-05-19T02:54:06.934Z,79.12
2023-05-19T02:56:34.221Z,79.10
2023-05-19T02:59:02.082Z,78.93
2023-05-19T03:01:29.576Z,79.23
2023-05-19T03:03:57.063Z,78.88
2023-05-19T03:06:24.744Z,79.34
2023-05-19T03:08:52.101Z,79.36
2023-05-19T03:11:19.577Z,79.24
2023-05-19T03:13:46.996Z,79.00
2023-05-19T03:16:14.413Z,78.75
2023-05-19T03:18:42.952Z,78.38
2023-05-19T03:21:10.289Z,78.39
2023-05-19T03:23:37.784Z,78.71
2023-05-19T03:26:05.782Z,78.88
2023-05-19T03:28:33.111Z,78.31
2023-05-19T03:31:00.743Z,78.31
2023-05-19T03:33:32.972Z,78.43
2023-05-19T03:36:00.578Z,78.88
2023-05-19T03:38:28.485Z,78.80
2023-05-19T03:40:57.812Z,79.11
2023-05-19T03:43:25.341Z,79.02
2023-05-19T03:45:58.817Z,78.87
2023-05-19T03:48:44.663Z,78.99
2023-05-19T03:52:09.342Z,79.03
2023-05-19T03:54:50.859Z,79.32
2023-05-19T03:57:20.286Z,79.23
2023-05-19T03:59:47.994Z,79.48
2023-05-19T04:02:16.674Z,79.52
2023-05-19T04:04:44.387Z,80.00
2023-05-19T04:07:12.253Z,79.95
2023-05-19T04:09:39.720Z,80.03
2023-05-19T04:12:07.877Z,80.12
2023-05-19T04:14:35.419Z,80.51
2023-05-19T04:17:04.596Z,80.49
2023-05-19T04:19:32.146Z,80.29
2023-05-19T04:21:59.634Z,80.21
2023-05-19T04:24:27.272Z,79.78
2023-05-19T04:26:54.712Z,79.61
2023-05-19T04:29:23.512Z,79.59
2023-05-19T04:31:51.231Z,79.35
2023-05-19T04:34:19.540Z,79.20
2023-05-19T04:36:47.925Z,79.05
2023-05-19T04:39:15.636Z,79.00
2023-05-19T04:41:44.518Z,78.58
2023-05-19T04:44:13.452Z,78.50
2023-05-19T04:46:42.281Z,78.57
2023-05-19T04:49:12.424Z,78.55
2023-05-19T04:51:41.463Z,78.39
2023-05-19T04:54:09.795Z,78.66
2023-05-19T04:56:37.365Z,78.68
2023-05-19T04:59:05.185Z,78.50
2023-05-19T05:01:33.556Z,78.92
2023-05-19T05:04:02.440Z,78.80
2023-05-19T05:06:31.234Z,78.52
2023-05-19T05:09:01.133Z,78.25
2023-05-19T05:11:29.408Z,77.87
2023-05-19T05:14:00.321Z,77.64
2023-05-19T05:16:29.148Z,77.68
2023-05-19T05:18:57.996Z,77.21
2023-05-19T05:21:26.531Z,77.06
2023-05-19T05:23:55.020Z,76.77
2023-05-19T05:26:28.227Z,76.69
2023-05-19T05:28:56.156Z,77.00
2023-05-19T05:31:23.972Z,77.33
2023-05-19T05:33:52.149Z,77.68
2023-05-19T05:36:21.913Z,77.49
2023-05-19T05:38:49.797Z,77.07
2023-05-19T05:41:17.514Z,76.37
2023-05-19T05:43:45.807Z,76.06
2023-05-19T05:46:13.781Z,75.61
2023-05-19T05:48:42.405Z,75.13
2023-05-19T05:51:11.689Z,74.56
2023-05-19T05:53:44.726Z,74.68
2023-05-19T05:56:13.923Z,74.71
2023-05-19T05:58:46.211Z,75.12
2023-05-19T06:01:16.663Z,75.31
2023-05-19T06:03:44.657Z,75.17
2023-05-19T06:06:15.338Z,75.26
2023-05-19T06:08:43.008Z,74.60
2023-05-19T06:11:11.793Z,73.99
2023-05-19T06:13:43.349Z,73.67
2023-05-19T06:16:15.520Z,73.58
2023-05-19T06:18:45.961Z,73.74
2023-05-19T06:21:14.154Z,73.50
2023-05-19T06:23:42.163Z,73.08
2023-05-19T06:26:10.702Z,72.91
2023-05-19T06:28:38.287Z,72.85
2023-05-19T06:31:06.370Z,72.58
2023-05-19T06:33:42.157Z,72.19
2023-05-19T06:36:10.331Z,72.01
2023-05-19T06:38:38.397Z,72.18
2023-05-19T06:41:06.979Z,72.59
2023-05-19T06:43:34.674Z,72.41
2023-05-19T06:46:04.888Z,72.36
2023-05-19T06:48:33.620Z,72.17
2023-05-19T06:51:04.470Z,71.98
2023-05-19T06:53:33.743Z,71.84
2023-05-19T06:56:02.893Z,71.64
2023-05-19T06:58:39.693Z,72.15
2023-05-19T07:01:08.302Z,71.92
2023-05-19T07:03:41.048Z,72.04
2023-05-19T07:06:09.329Z,71.81
2023-05-19T07:08:37.473Z,71.59
2023-05-19T07:11:06.216Z,71.05
2023-05-19T07:13:33.671Z,70.74
2023-05-19T07:16:04.546Z,70.79
2023-05-19T07:18:32.041Z,69.81
2023-05-19T07:20:59.952Z,68.56
2023-05-19T07:23:31.203Z,68.55
2023-05-19T07:25:58.918Z,68.40
2023-05-19T07:28:26.716Z,68.15
2023-05-19T07:30:54.400Z,67.84
2023-05-19T07:33:22.175Z,67.78
2023-05-19T07:35:49.541Z,67.88
2023-05-19T07:38:17.512Z,67.82
2023-05-19T07:40:45.254Z,68.04
2023-05-19T07:43:12.952Z,67.47
2023-05-19T07:45:43.757Z,67.54
2023-05-19T07:48:12.270Z,67.03
2023-05-19T07:50:40.062Z,66.23
2023-05-19T07:53:07.500Z,66.42
2023-05-19T07:55:35.087Z,65.83
2023-05-19T07:58:02.832Z,65.99
2023-05-19T08:00:30.759Z,65.50
2023-05-19T08:02:58.778Z,65.41
2023-05-19T08:05:26.268Z,65.78
2023-05-19T08:07:53.931Z,66.27
2023-05-19T08:10:21.701Z,66.98
2023-05-19T08:12:49.624Z,65.90
2023-05-19T08:15:18.523Z,65.26
2023-05-19T08:17:46.304Z,65.09
2023-05-19T08:20:17.413Z,64.97
2023-05-19T08:22:45.702Z,65.07
2023-05-19T08:25:13.525Z,65.91
2023-05-19T08:27:41.425Z,64.83
2023-05-19T08:30:10.136Z,63.75
2023-05-19T08:32:42.946Z,63.74
2023-05-19T08:35:10.799Z,63.73
2023-05-19T08:37:38.405Z,63.71
2023-05-19T08:40:08.665Z,64.04
2023-05-19T08:42:35.997Z,62.93
2023-05-19T08:45:06.768Z,63.24
2023-05-19T08:47:34.991Z,62.98
2023-05-19T08:50:09.899Z,63.31
2023-05-19T08:53:02.021Z,63.60
2023-05-19T08:55:46.661Z,63.75
2023-05-19T08:58:16.050Z,63.22
2023-05-19T09:00:44.231Z,63.49
2023-05-19T09:05:49.016Z,62.37
2023-05-19T09:08:16.475Z,61.50
2023-05-19T09:10:54.110Z,61.24
2023-05-19T09:13:21.909Z,61.17
2023-05-19T09:15:50.356Z,61.14
2023-05-19T09:18:18.184Z,60.34
2023-05-19T09:20:46.937Z,60.13
2023-05-19T09:23:17.267Z,59.60
2023-05-19T09:25:53.017Z,59.03
2023-05-19T09:28:30.095Z,58.49
2023-05-19T09:31:10.775Z,58.25
2023-05-19T09:33:45.552Z,58.01
2023-05-19T09:36:14.276Z,58.55
2023-05-19T09:38:42.252Z,58.74
2023-05-19T09:41:10.418Z,58.21
2023-05-19T09:43:38.153Z,57.01
2023-05-19T09:46:06.958Z,56.60
2023-05-19T09:48:44.090Z,55.93
2023-05-19T09:51:12.719Z,56.18
2023-05-19T09:53:41.926Z,56.23
2023-05-19T09:56:09.569Z,55.01
2023-05-19T09:58:37.496Z,55.03
2023-05-19T10:01:06.192Z,55.23
2023-05-19T10:03:34.770Z,55.22
2023-05-19T10:06:05.267Z,54.59
2023-05-19T10:08:34.181Z,52.88
2023-05-19T10:11:03.052Z,52.80
2023-05-19T10:13:31.752Z,52.73
2023-05-19T10:16:00.404Z,52.18
2023-05-19T10:18:30.762Z,52.16
2023-05-19T10:21:00.159Z,52.59
2023-05-19T10:23:27.592Z,52.22
2023-05-19T10:25:59.103Z,52.07
2023-05-19T10:28:36.925Z,52.25
2023-05-19T10:31:09.738Z,52.16
2023-05-19T10:34:04.764Z,51.99
2023-05-19T10:36:47.808Z,52.19
2023-05-19T10:39:27.680Z,52.48
2023-05-19T10:42:21.474Z,52.58
2023-05-19T10:45:21.652Z,52.79
2023-05-19T10:47:51.226Z,52.44
2023-05-19T10:50:20.211Z,52.03
2023-05-19T10:52:55.549Z,52.81
2023-05-19T10:55:49.681Z,52.83
2023-05-19T10:58:41.857Z,53.05
2023-05-19T11:01:24.667Z,54.07
2023-05-19T11:03:54.540Z,54.14
2023-05-19T11:06:32.320Z,54.31
2023-05-19T11:09:08.675Z,54.06
2023-05-19T11:11:52.963Z,53.52
2023-05-19T11:14:27.463Z,53.25
2023-05-19T11:16:59.534Z,52.35
2023-05-19T11:19:30.958Z,51.91
2023-05-19T11:22:09.644Z,51.69
2023-05-19T11:24:42.103Z,51.42
2023-05-19T11:27:28.193Z,51.43
2023-05-19T11:29:59.003Z,50.89
2023-05-19T11:32:30.631Z,50.94
2023-05-19T11:34:58.656Z,50.63
2023-05-19T11:37:28.735Z,49.67
2023-05-19T11:39:56.216Z,49.26
2023-05-19T11:42:24.201Z,49.64
2023-05-19T11:44:55.738Z,48.74
2023-05-19T11:47:23.731Z,48.66
2023-05-19T11:49:57.493Z,48.24
2023-05-19T11:52:30.221Z,48.03
2023-05-19T11:55:01.552Z,47.63
2023-05-19T11:57:28.951Z,47.45
2023-05-19T11:59:56.938Z,47.24
2023-05-19T12:02:25.720Z,47.20
2023-05-19T12:04:54.256Z,47.15
2023-05-19T12:07:25.993Z,47.01
2023-05-19T12:09:59.847Z,46.90
2023-05-19T12:12:29.284Z,46.56
2023-05-19T12:14:57.208Z,46.07
2023-05-19T12:17:24.725Z,46.30
2023-05-19T12:19:52.464Z,46.47
2023-05-19T12:22:20.515Z,46.09
2023-05-19T12:24:49.334Z,45.24
2023-05-19T12:27:23.608Z,44.13
2023-05-19T12:29:53.073Z,44.07
2023-05-19T12:32:28.311Z,44.45
2023-05-19T12:34:56.479Z,44.26
2023-05-19T12:37:29.857Z,44.13
2023-05-19T12:39:58.358Z,43.81
2023-05-19T12:42:30.858Z,43.87
2023-05-19T12:45:01.546Z,43.61
2023-05-19T12:47:35.859Z,42.71
2023-05-19T12:50:08.889Z,42.39
2023-05-19T12:52:47.892Z,42.35
2023-05-19T12:55:16.335Z,41.48
2023-05-19T12:57:45.148Z,41.26
2023-05-19T13:00:22.148Z,40.29
2023-05-19T13:03:07.076Z,39.80
2023-05-19T13:05:43.284Z,39.84
2023-05-19T13:08:13.285Z,40.74
2023-05-19T13:10:43.381Z,41.78
2023-05-19T13:13:11.775Z,42.10
2023-05-19T13:15:44.491Z,43.04
2023-05-19T13:18:14.117Z,45.13
2023-05-19T13:20:44.182Z,46.70
2023-05-19T13:23:12.951Z,48.93
2023-05-19T13:25:41.869Z,50.92
2023-05-19T13:28:09.368Z,51.52
2023-05-19T13:30:39.507Z,51.83
2023-05-19T13:33:07.911Z,54.87
2023-05-19T13:35:38.544Z,60.24
2023-05-19T13:38:09.810Z,63.87
2023-05-19T13:40:39.461Z,67.20
2023-05-19T13:43:07.448Z,74.11
2023-05-19T13:45:35.160Z,77.71
2023-05-19T13:48:02.982Z,78.12
2023-05-19T13:50:30.301Z,75.42
2023-05-19T13:52:57.759Z,71.51
2023-05-19T13:55:26.977Z,66.64
2023-05-19T13:57:54.454Z,68.13
2023-05-19T14:00:22.348Z,67.73
2023-05-19T14:02:50.007Z,67.04
2023-05-19T14:05:17.500Z,64.43
2023-05-19T14:07:44.935Z,61.17
2023-05-19T14:10:12.330Z,60.90
2023-05-19T14:12:58.087Z,60.88
2023-05-19T14:15:27.400Z,60.58
2023-05-19T14:17:54.922Z,58.89
2023-05-19T14:20:22.532Z,61.06
2023-05-19T14:22:50.078Z,60.08
2023-05-19T14:25:18.154Z,56.01
2023-05-19T14:27:45.693Z,54.06
2023-05-19T14:30:13.212Z,52.78
2023-05-19T14:32:40.722Z,51.34
2023-05-19T14:35:08.730Z,53.16
2023-05-19T14:37:36.297Z,52.77
2023-05-19T14:40:04.681Z,51.25
2023-05-19T14:42:39.282Z,50.52
2023-05-19T14:45:07.784Z,50.23
2023-05-19T14:47:35.352Z,49.20
2023-05-19T14:50:02.864Z,48.42
2023-05-19T14:52:30.431Z,48.68
2023-05-19T14:54:57.718Z,48.32
2023-05-19T14:57:25.049Z,48.46
2023-05-19T14:59:52.648Z,48.43
2023-05-19T15:02:20.201Z,49.68
2023-05-19T15:04:48.089Z,48.88
2023-05-19T15:07:16.071Z,48.59
2023-05-19T15:09:43.441Z,50.01
2023-05-19T15:12:11.110Z,50.25
2023-05-19T15:14:38.761Z,50.98
2023-05-19T15:17:06.553Z,49.62
2023-05-19T15:19:34.039Z,48.85
2023-05-19T15:22:01.625Z,49.85
2023-05-19T15:24:28.918Z,50.04
2023-05-19T15:26:56.827Z,48.15
2023-05-19T15:29:24.289Z,46.36
2023-05-19T15:31:52.226Z,45.50
2023-05-19T15:34:20.988Z,45.08
2023-05-19T15:36:48.430Z,44.42
2023-05-19T15:39:15.588Z,44.84
2023-05-19T15:41:43.232Z,45.19
2023-05-19T15:44:10.605Z,45.44
2023-05-19T15:46:38.292Z,45.26
2023-05-19T15:49:05.893Z,45.71
2023-05-19T15:51:33.800Z,45.66
2023-05-19T15:54:01.507Z,44.88
2023-05-19T15:56:29.117Z,44.81
2023-05-19T15:58:56.656Z,45.71
2023-05-19T16:01:25.028Z,46.38
2023-05-19T16:03:52.445Z,47.09
2023-05-19T16:06:19.869Z,47.89
2023-05-19T16:08:47.700Z,48.94
2023-05-19T16:11:15.328Z,49.34
2023-05-19T16:13:42.642Z,49.22
2023-05-19T16:16:10.060Z,48.55
2023-05-19T16:18:37.654Z,48.48
2023-05-19T16:21:06.098Z,48.95
2023-05-19T16:23:33.495Z,48.96
2023-05-19T16:26:01.083Z,48.88
2023-05-19T16:28:28.379Z,49.41
2023-05-19T16:30:59.965Z,49.43
2023-05-19T16:33:27.940Z,49.90
2023-05-19T16:35:56.135Z,51.15
2023-05-19T16:38:23.730Z,52.86
2023-05-19T16:40:51.133Z,53.60
2023-05-19T16:43:18.561Z,54.26
2023-05-19T16:45:45.940Z,55.47
2023-05-19T16:48:13.504Z,55.89
2023-05-19T16:50:40.777Z,56.33
2023-05-19T16:53:08.632Z,56.79
2023-05-19T16:55:35.908Z,57.01
2023-05-19T16:58:03.204Z,56.75
2023-05-19T17:00:30.647Z,56.84
2023-05-19T17:02:58.253Z,57.42
2023-05-19T17:05:26.853Z,57.70
2023-05-19T17:07:54.245Z,57.80
2023-05-19T17:10:22.022Z,58.22
2023-05-19T17:12:49.838Z,58.08
2023-05-19T17:15:17.592Z,58.33
2023-05-19T17:17:45.017Z,58.45
2023-05-19T17:20:13.080Z,58.45
2023-05-19T17:22:40.813Z,58.91
2023-05-19T17:25:09.538Z,59.53
2023-05-19T17:27:36.919Z,59.54
2023-05-19T17:30:04.967Z,59.93
2023-05-19T17:32:35.751Z,60.01
2023-05-19T17:35:06.170Z,60.49
2023-05-19T17:37:33.542Z,61.65
2023-05-19T17:40:01.155Z,62.46
2023-05-19T17:42:28.832Z,63.80
2023-05-19T17:44:56.140Z,64.63
2023-05-19T17:47:23.884Z,65.04
2023-05-19T17:49:53.984Z,65.32
2023-05-19T17:52:21.851Z,65.53
2023-05-19T17:54:50.157Z,66.08
2023-05-19T17:57:18.437Z,66.40
2023-05-19T17:59:46.306Z,66.60
2023-05-19T18:02:15.559Z,67.08
2023-05-19T18:04:43.385Z,67.15
2023-05-19T18:07:11.956Z,67.46
2023-05-19T18:09:45.003Z,67.63
2023-05-19T18:12:12.346Z,68.03
2023-05-19T18:14:39.888Z,67.72
2023-05-19T18:17:07.639Z,67.20
2023-05-19T18:19:35.350Z,67.24
2023-05-19T18:22:03.186Z,67.25
2023-05-19T18:24:30.895Z,66.37
2023-05-19T18:26:58.354Z,66.39
2023-05-19T18:29:26.006Z,67.23
2023-05-19T18:31:53.570Z,67.29
2023-05-19T18:34:21.092Z,66.86
2023-05-19T18:36:48.716Z,67.59
2023-05-19T18:39:16.312Z,71.64
2023-05-19T18:41:43.908Z,70.83
2023-05-19T18:44:11.564Z,74.04
2023-05-19T18:46:39.180Z,78.28
2023-05-19T18:49:06.832Z,78.03
2023-05-19T18:51:35.836Z,77.00
2023-05-19T18:54:03.202Z,77.94
2023-05-19T18:56:33.003Z,77.80
2023-05-19T18:59:00.999Z,76.62
2023-05-19T19:01:28.739Z,77.34
2023-05-19T19:03:56.432Z,74.04
2023-05-19T19:06:24.139Z,73.79
2023-05-19T19:08:51.581Z,73.03
2023-05-19T19:11:19.465Z,72.95
2023-05-19T19:13:50.571Z,73.32
2023-05-19T19:16:18.162Z,74.02
2023-05-19T19:18:45.552Z,74.26
2023-05-19T19:21:13.309Z,72.57
2023-05-19T19:23:40.893Z,72.15
2023-05-19T19:26:09.062Z,71.86
2023-05-19T19:28:36.734Z,71.81
2023-05-19T19:31:04.424Z,71.24
2023-05-19T19:33:32.006Z,72.79
2023-05-19T19:35:59.404Z,72.42
2023-05-19T19:38:26.955Z,73.59
2023-05-19T19:40:54.572Z,73.19
2023-05-19T19:43:21.924Z,72.49
2023-05-19T19:45:58.543Z,73.09
2023-05-19T19:48:27.037Z,73.39
2023-05-19T19:50:55.679Z,73.53
2023-05-19T19:53:23.876Z,74.22
2023-05-19T19:56:02.410Z,74.90
2023-05-19T19:58:29.941Z,73.18
2023-05-19T20:01:03.169Z,73.17
2023-05-19T20:03:33.029Z,72.52
2023-05-19T20:06:00.869Z,72.32
2023-05-19T20:08:28.690Z,71.88
2023-05-19T20:10:56.161Z,73.13
2023-05-19T20:13:23.933Z,73.43
2023-05-19T20:15:51.372Z,72.55
2023-05-19T20:18:18.741Z,72.33
2023-05-19T20:20:46.282Z,72.29
2023-05-19T20:23:16.133Z,71.73
2023-05-19T20:25:58.467Z,72.37
2023-05-19T20:28:30.249Z,71.53
2023-05-19T20:30:57.639Z,71.68
2023-05-19T20:33:25.248Z,71.91
2023-05-19T20:35:52.627Z,71.86
2023-05-19T20:38:20.117Z,71.54
2023-05-19T20:40:47.606Z,71.17
2023-05-19T20:43:15.089Z,71.41
2023-05-19T20:45:44.254Z,71.63
2023-05-19T20:48:11.906Z,72.01
2023-05-19T20:50:40.369Z,72.06
2023-05-19T20:53:08.109Z,72.87
2023-05-19T20:55:38.255Z,73.73
2023-05-19T20:58:06.216Z,73.58
2023-05-19T21:00:34.085Z,73.86
2023-05-19T21:03:02.017Z,73.99
2023-05-19T21:05:29.539Z,75.26
2023-05-19T21:07:57.185Z,74.61
2023-05-19T21:10:24.518Z,73.62
2023-05-19T21:12:51.883Z,75.54
2023-05-19T21:15:19.394Z,75.77
2023-05-19T21:17:47.318Z,73.46
2023-05-19T21:20:14.927Z,75.26
2023-05-19T21:22:42.218Z,75.13
2023-05-19T21:25:10.002Z,73.90
2023-05-19T21:27:39.019Z,73.96
2023-05-19T21:30:07.215Z,73.29
2023-05-19T21:32:34.641Z,73.68
2023-05-19T21:35:02.594Z,74.33
2023-05-19T21:37:29.939Z,75.30
2023-05-19T21:39:57.488Z,76.15
2023-05-19T21:42:25.307Z,77.85
2023-05-19T21:44:52.828Z,77.86
2023-05-19T21:47:20.344Z,77.64
2023-05-19T21:49:47.836Z,77.35
2023-05-19T21:52:15.237Z,76.67
2023-05-19T21:54:42.813Z,77.69
2023-05-19T21:57:11.972Z,77.15
2023-05-19T21:59:39.430Z,77.79
2023-05-19T22:02:07.182Z,77.64
2023-05-19T22:04:34.615Z,78.62
2023-05-19T22:07:02.075Z,79.68
2023-05-19T22:09:29.605Z,79.75
2023-05-19T22:11:56.990Z,79.91
2023-05-19T22:14:24.897Z,79.47
2023-05-19T22:16:52.246Z,79.15
2023-05-19T22:19:19.574Z,78.55
2023-05-19T22:21:46.959Z,78.30
2023-05-19T22:24:14.889Z,78.87
2023-05-19T22:26:42.643Z,79.58
2023-05-19T22:29:14.872Z,78.18
2023-05-19T22:31:42.276Z,78.03
2023-05-19T22:34:12.125Z,78.49
2023-05-19T22:36:40.848Z,77.74
2023-05-19T22:39:08.158Z,77.26
2023-05-19T22:41:35.663Z,77.16
2023-05-19T22:44:03.117Z,76.39
2023-05-19T22:46:30.677Z,75.21
2023-05-19T22:48:58.306Z,76.19
2023-05-19T22:51:25.913Z,76.15
2023-05-19T22:53:53.291Z,74.38
2023-05-19T22:56:20.931Z,73.79
2023-05-19T22:58:48.293Z,74.26
2023-05-19T23:01:16.707Z,73.84
2023-05-19T23:03:44.394Z,73.60
2023-05-19T23:06:11.825Z,73.85
2023-05-19T23:08:39.492Z,73.85
2023-05-19T23:11:07.685Z,73.86
2023-05-19T23:13:35.406Z,74.18
2023-05-19T23:16:02.740Z,74.40
2023-05-19T23:18:30.110Z,73.78
2023-05-19T23:20:57.399Z,73.46
2023-05-19T23:23:24.783Z,73.37
2023-05-19T23:25:52.237Z,73.18
2023-05-19T23:28:19.685Z,73.82
2023-05-19T23:30:47.261Z,74.43
2023-05-19T23:33:14.908Z,74.94
2023-05-19T23:35:43.160Z,74.96
2023-05-19T23:38:10.926Z,75.14
2023-05-19T23:40:38.350Z,74.93
2023-05-19T23:43:06.135Z,74.53
2023-05-19T23:45:33.636Z,74.88
2023-05-19T23:48:01.527Z,74.67
2023-05-19T23:50:28.941Z,74.29
2023-05-19T23:52:56.437Z,74.45
2023-05-19T23:55:23.840Z,74.36
2023-05-19T23:57:51.179Z,74.62
